Time,TemperatureF,DewpointF,PressureIn,WindDirection,WindDirectionDegrees,WindSpeedMPH,WindSpeedGustMPH,Humidity,HourlyPrecipIn,Conditions,Clouds,dailyrainin,SoftwareType,DateUTC
2013-01-11 00:10:00,46.6,44.0,30.07,East,91,1.0,5.0,92,0.00,,,0.10,weatherlink.com 1.10,2013-01-11 05:10:00,
2013-01-11 00:28:00,46.6,45.0,30.07,NW,326,1.0,8.0,93,0.00,,,0.10,weatherlink.com 1.10,2013-01-11 05:28:00,
2013-01-11 00:47:00,47.2,45.0,30.06,ENE,70,4.0,9.0,93,0.00,,,0.10,weatherlink.com 1.10,2013-01-11 05:47:00,
2013-01-11 01:03:00,47.5,45.0,30.05,ENE,68,3.0,7.0,92,0.00,,,0.00,weatherlink.com 1.10,2013-01-11 06:03:00,
2013-01-11 01:21:00,47.5,45.0,30.03,NE,53,4.0,6.0,92,0.00,,,0.00,weatherlink.com 1.10,2013-01-11 06:21:00,
2013-01-11 01:40:00,48.4,46.0,30.01,ENE,63,4.0,6.0,92,0.00,,,0.00,weatherlink.com 1.10,2013-01-11 06:40:00,
2013-01-11 01:58:00,49.2,47.0,30.00,ENE,57,5.0,6.0,92,0.00,,,0.00,weatherlink.com 1.10,2013-01-11 06:58:00,
2013-01-11 02:16:00,50.3,48.0,29.99,ENE,71,3.0,5.0,92,0.00,,,0.00,weatherlink.com 1.10,2013-01-11 07:16:00,
2013-01-11 02:33:00,50.2,48.0,29.98,East,89,3.0,6.0,93,0.01,,,0.01,weatherlink.com 1.10,2013-01-11 07:33:00,
2013-01-11 02:51:00,50.5,49.0,29.97,ENE,68,1.0,3.0,94,0.03,,,0.03,weatherlink.com 1.10,2013-01-11 07:51:00,
2013-01-11 03:09:00,51.1,50.0,29.95,ESE,115,3.0,7.0,96,0.14,,,0.14,weatherlink.com 1.10,2013-01-11 08:09:00,
2013-01-11 03:27:00,51.3,50.0,29.94,East,96,5.0,6.0,96,0.18,,,0.19,weatherlink.com 1.10,2013-01-11 08:27:00,
2013-01-11 03:44:00,51.9,51.0,29.93,SE,124,2.0,7.0,96,0.19,,,0.20,weatherlink.com 1.10,2013-01-11 08:44:00,
2013-01-11 04:02:00,52.4,51.0,29.92,East,99,2.0,15.0,96,0.12,,,0.20,weatherlink.com 1.10,2013-01-11 09:02:00,
2013-01-11 04:20:00,52.4,51.0,29.92,SE,136,2.0,6.0,96,0.03,,,0.21,weatherlink.com 1.10,2013-01-11 09:20:00,
2013-01-11 04:37:00,52.8,52.0,29.95,SE,141,4.0,14.0,96,0.07,,,0.27,weatherlink.com 1.10,2013-01-11 09:37:00,
2013-01-11 04:55:00,52.2,51.0,29.94,East,97,2.0,9.0,96,0.21,,,0.41,weatherlink.com 1.10,2013-01-11 09:55:00,
2013-01-11 05:13:00,51.6,51.0,29.92,ESE,107,2.0,4.0,96,0.25,,,0.45,weatherlink.com 1.10,2013-01-11 10:13:00,
2013-01-11 05:31:00,51.4,50.0,29.92,East,100,1.0,2.0,96,0.23,,,0.46,weatherlink.com 1.10,2013-01-11 10:31:00,
2013-01-11 05:46:00,51.4,51.0,29.93,East,91,3.0,3.0,97,0.18,,,0.52,weatherlink.com 1.10,2013-01-11 10:46:00,
2013-01-11 06:02:00,51.5,51.0,29.91,SSW,201,0.0,2.0,97,0.11,,,0.55,weatherlink.com 1.10,2013-01-11 11:02:00,
2013-01-11 06:17:00,52.2,51.0,29.90,ESE,108,1.0,3.0,97,0.11,,,0.57,weatherlink.com 1.10,2013-01-11 11:17:00,
2013-01-11 06:34:00,52.4,52.0,29.89,SE,132,2.0,2.0,97,0.11,,,0.57,weatherlink.com 1.10,2013-01-11 11:34:00,
2013-01-11 06:52:00,52.5,52.0,29.89,ESE,120,1.0,3.0,97,0.03,,,0.57,weatherlink.com 1.10,2013-01-11 11:52:00,
2013-01-11 07:10:00,52.4,52.0,29.90,SSW,198,2.0,3.0,97,0.00,,,0.57,weatherlink.com 1.10,2013-01-11 12:10:00,
2013-01-11 07:27:00,52.5,52.0,29.91,SSE,156,1.0,3.0,97,0.00,,,0.57,weatherlink.com 1.10,2013-01-11 12:27:00,
2013-01-11 07:46:00,52.9,52.0,29.91,SSW,205,2.0,5.0,97,0.00,,,0.57,weatherlink.com 1.10,2013-01-11 12:46:00,
2013-01-11 08:03:00,53.0,52.0,29.92,SE,146,2.0,3.0,97,0.00,,,0.57,weatherlink.com 1.10,2013-01-11 13:03:00,
2013-01-11 08:21:00,52.9,52.0,29.92,SSE,158,2.0,5.0,97,0.00,,,0.57,weatherlink.com 1.10,2013-01-11 13:21:00,
2013-01-11 08:39:00,53.4,53.0,29.93,SW,222,1.0,5.0,97,0.00,,,0.57,weatherlink.com 1.10,2013-01-11 13:39:00,
2013-01-11 08:56:00,53.5,53.0,29.94,SSE,166,5.0,7.0,97,0.01,,,0.58,weatherlink.com 1.10,2013-01-11 13:56:00,
2013-01-11 09:15:00,53.7,53.0,29.94,SSW,212,3.0,6.0,97,0.01,,,0.58,weatherlink.com 1.10,2013-01-11 14:15:00,
2013-01-11 09:33:00,53.9,53.0,29.95,SSW,208,4.0,8.0,96,0.01,,,0.58,weatherlink.com 1.10,2013-01-11 14:33:00,
2013-01-11 09:50:00,54.1,53.0,29.95,SSE,158,3.0,5.0,96,0.00,,,0.58,weatherlink.com 1.10,2013-01-11 14:50:00,
2013-01-11 10:08:00,54.2,53.0,29.95,SSE,165,2.0,4.0,95,0.00,,,0.58,weatherlink.com 1.10,2013-01-11 15:08:00,
2013-01-11 10:26:00,54.1,53.0,29.95,SW,228,4.0,9.0,95,0.00,,,0.58,weatherlink.com 1.10,2013-01-11 15:26:00,
2013-01-11 10:43:00,54.4,53.0,29.95,WNW,295,3.0,8.0,93,0.00,,,0.58,weatherlink.com 1.10,2013-01-11 15:43:00,
2013-01-11 11:01:00,54.7,52.0,29.95,SSW,202,4.0,15.0,91,0.00,,,0.58,weatherlink.com 1.10,2013-01-11 16:01:00,
2013-01-11 11:19:00,55.3,53.0,29.95,SSE,163,4.0,10.0,90,0.00,,,0.58,weatherlink.com 1.10,2013-01-11 16:19:00,
2013-01-11 11:37:00,55.6,52.0,29.95,SSE,150,5.0,15.0,86,0.00,,,0.58,weatherlink.com 1.10,2013-01-11 16:37:00,
2013-01-11 11:54:00,55.3,51.0,29.94,SSW,211,8.0,11.0,85,0.00,,,0.58,weatherlink.com 1.10,2013-01-11 16:54:00,
2013-01-11 12:12:00,55.2,50.0,29.94,SSW,207,7.0,11.0,83,0.00,,,0.58,weatherlink.com 1.10,2013-01-11 17:12:00,
2013-01-11 12:31:00,55.1,50.0,29.93,SSW,193,6.0,12.0,82,0.00,,,0.58,weatherlink.com 1.10,2013-01-11 17:31:00,
2013-01-11 12:47:00,55.3,49.0,29.93,SSW,205,3.0,14.0,80,0.00,,,0.58,weatherlink.com 1.10,2013-01-11 17:47:00,
2013-01-11 13:06:00,56.4,49.0,29.93,SW,222,6.0,13.0,77,0.00,,,0.58,weatherlink.com 1.10,2013-01-11 18:06:00,
2013-01-11 13:24:00,58.3,49.0,29.92,SW,215,9.0,14.0,72,0.00,,,0.58,weatherlink.com 1.10,2013-01-11 18:24:00,
2013-01-11 13:41:00,58.0,49.0,29.92,SSE,160,6.0,13.0,72,0.00,,,0.58,weatherlink.com 1.10,2013-01-11 18:41:00,
2013-01-11 13:59:00,57.4,49.0,29.92,South,183,3.0,15.0,74,0.00,,,0.58,weatherlink.com 1.10,2013-01-11 18:59:00,
2013-01-11 14:17:00,56.6,49.0,29.93,SSW,204,8.0,14.0,75,0.00,,,0.58,weatherlink.com 1.10,2013-01-11 19:17:00,
2013-01-11 14:34:00,56.6,49.0,29.92,SSW,211,4.0,7.0,77,0.00,,,0.58,weatherlink.com 1.10,2013-01-11 19:34:00,
2013-01-11 14:52:00,56.7,49.0,29.92,SSW,195,2.0,7.0,76,0.00,,,0.58,weatherlink.com 1.10,2013-01-11 19:52:00,
2013-01-11 15:10:00,56.6,49.0,29.93,South,181,3.0,10.0,75,0.00,,,0.58,weatherlink.com 1.10,2013-01-11 20:10:00,
2013-01-11 15:29:00,57.4,49.0,29.93,SSE,165,6.0,12.0,74,0.00,,,0.58,weatherlink.com 1.10,2013-01-11 20:29:00,
2013-01-11 15:46:00,58.4,49.0,29.93,SE,135,7.0,9.0,72,0.00,,,0.58,weatherlink.com 1.10,2013-01-11 20:46:00,
2013-01-11 16:04:00,58.6,50.0,29.93,SSW,204,4.0,9.0,72,0.00,,,0.58,weatherlink.com 1.10,2013-01-11 21:04:00,
2013-01-11 16:22:00,57.8,50.0,29.93,ENE,62,2.0,9.0,74,0.00,,,0.58,weatherlink.com 1.10,2013-01-11 21:22:00,
2013-01-11 16:39:00,57.8,50.0,29.93,SSW,196,4.0,6.0,74,0.00,,,0.58,weatherlink.com 1.10,2013-01-11 21:39:00,
2013-01-11 16:57:00,57.6,49.0,29.93,SSW,195,3.0,8.0,74,0.00,,,0.58,weatherlink.com 1.10,2013-01-11 21:57:00,
2013-01-11 17:15:00,56.9,49.0,29.93,SSE,158,2.0,6.0,75,0.00,,,0.58,weatherlink.com 1.10,2013-01-11 22:15:00,
2013-01-11 17:32:00,56.1,49.0,29.93,SSW,198,2.0,4.0,76,0.00,,,0.58,weatherlink.com 1.10,2013-01-11 22:32:00,
2013-01-11 18:10:00,54.5,48.0,29.93,SE,146,1.0,3.0,80,0.00,,,0.58,weatherlink.com 1.10,2013-01-11 23:10:00,
2013-01-11 18:25:00,53.7,48.0,29.93,SSW,211,2.0,3.0,82,0.00,,,0.58,weatherlink.com 1.10,2013-01-11 23:25:00,
2013-01-11 18:43:00,53.5,49.0,29.93,SSW,211,2.0,6.0,83,0.00,,,0.58,weatherlink.com 1.10,2013-01-11 23:43:00,
2013-01-11 19:01:00,53.9,49.0,29.94,SSE,152,1.0,5.0,83,0.00,,,0.58,weatherlink.com 1.10,2013-01-12 00:01:00,
2013-01-11 19:19:00,54.0,49.0,29.94,SSE,158,2.0,5.0,83,0.00,,,0.58,weatherlink.com 1.10,2013-01-12 00:19:00,
2013-01-11 19:36:00,54.3,49.0,29.93,SSE,149,1.0,7.0,82,0.00,,,0.58,weatherlink.com 1.10,2013-01-12 00:36:00,
2013-01-11 19:54:00,54.3,49.0,29.93,SSW,204,4.0,6.0,83,0.00,,,0.58,weatherlink.com 1.10,2013-01-12 00:54:00,
2013-01-11 20:12:00,54.6,49.0,29.93,South,185,3.0,8.0,82,0.00,,,0.58,weatherlink.com 1.10,2013-01-12 01:12:00,
2013-01-11 20:26:00,54.3,49.0,29.93,SSE,166,2.0,6.0,82,0.00,,,0.58,weatherlink.com 1.10,2013-01-12 01:26:00,
2013-01-11 20:41:00,54.3,49.0,29.93,East,101,2.0,6.0,82,0.00,,,0.58,weatherlink.com 1.10,2013-01-12 01:41:00,
2013-01-11 20:57:00,54.3,49.0,29.93,ESE,122,2.0,7.0,81,0.00,,,0.58,weatherlink.com 1.10,2013-01-12 01:57:00,
2013-01-11 21:15:00,54.3,49.0,29.93,SSE,160,2.0,8.0,81,0.00,,,0.58,weatherlink.com 1.10,2013-01-12 02:15:00,
2013-01-11 21:33:00,54.6,49.0,29.93,South,184,4.0,9.0,80,0.00,,,0.58,weatherlink.com 1.10,2013-01-12 02:33:00,
2013-01-11 21:50:00,54.7,48.0,29.93,SSE,149,3.0,9.0,79,0.00,,,0.58,weatherlink.com 1.10,2013-01-12 02:50:00,
2013-01-11 22:08:00,54.9,48.0,29.93,South,173,6.0,10.0,78,0.00,,,0.58,weatherlink.com 1.10,2013-01-12 03:08:00,
2013-01-11 22:26:00,55.1,48.0,29.93,SSE,156,5.0,8.0,77,0.00,,,0.58,weatherlink.com 1.10,2013-01-12 03:26:00,
2013-01-11 22:44:00,55.2,48.0,29.93,SSE,167,7.0,11.0,77,0.00,,,0.58,weatherlink.com 1.10,2013-01-12 03:44:00,
2013-01-11 23:01:00,55.4,48.0,29.93,SSE,167,4.0,10.0,76,0.00,,,0.58,weatherlink.com 1.10,2013-01-12 04:01:00,
2013-01-11 23:19:00,55.6,48.0,29.94,South,187,6.0,8.0,76,0.00,,,0.58,weatherlink.com 1.10,2013-01-12 04:19:00,
2013-01-11 23:37:00,55.8,48.0,29.93,South,186,3.0,11.0,76,0.00,,,0.58,weatherlink.com 1.10,2013-01-12 04:37:00,
2013-01-11 23:52:00,55.5,48.0,29.93,WSW,239,5.0,14.0,76,0.00,,,0.58,weatherlink.com 1.10,2013-01-12 04:52:00,